createdAt,value
2023-02-17T00:01:23.049Z,29.40
2023-02-17T00:03:51.389Z,28.73
2023-02-17T00:06:21.456Z,28.48
2023-02-17T00:08:49.610Z,31.30
2023-02-17T00:11:17.940Z,30.65
2023-02-17T00:13:46.370Z,29.75
2023-02-17T00:16:17.745Z,30.38
2023-02-17T00:18:45.612Z,28.65
2023-02-17T00:21:18.656Z,30.40
2023-02-17T00:23:47.579Z,29.50
2023-02-17T00:26:16.105Z,29.38
2023-02-17T00:28:43.992Z,29.38
2023-02-17T00:31:16.727Z,28.42
2023-02-17T00:33:44.387Z,29.52
2023-02-17T00:36:19.158Z,29.65
2023-02-17T00:38:49.988Z,29.80
2023-02-17T00:41:18.255Z,29.23
2023-02-17T00:43:45.748Z,29.20
2023-02-17T00:46:13.413Z,28.50
2023-02-17T00:48:41.175Z,27.63
2023-02-17T00:51:09.200Z,30.40
2023-02-17T00:53:37.090Z,29.52
2023-02-17T00:56:05.569Z,29.17
2023-02-17T00:58:33.215Z,30.42
2023-02-17T01:01:00.634Z,32.05
2023-02-17T01:03:28.541Z,31.52
2023-02-17T01:05:56.679Z,31.08
2023-02-17T01:08:24.841Z,30.65
2023-02-17T01:10:53.040Z,30.40
2023-02-17T01:13:21.143Z,28.75
2023-02-17T01:15:51.191Z,28.02
2023-02-17T01:18:20.491Z,27.23
2023-02-17T01:20:48.019Z,28.35
2023-02-17T01:23:16.147Z,28.63
2023-02-17T01:25:45.726Z,28.80
2023-02-17T01:28:19.816Z,29.23
2023-02-17T01:30:47.729Z,30.55
2023-02-17T01:33:15.428Z,30.35
2023-02-17T01:35:42.895Z,30.08
2023-02-17T01:38:10.477Z,31.23
2023-02-17T01:40:37.874Z,30.15
2023-02-17T01:43:06.527Z,29.98
2023-02-17T01:45:37.959Z,30.05
2023-02-17T01:48:24.044Z,31.05
2023-02-17T01:50:54.471Z,31.00
2023-02-17T01:53:27.044Z,29.95
2023-02-17T01:55:55.249Z,30.80
2023-02-17T01:58:24.360Z,31.65
2023-02-17T02:00:53.703Z,32.55
2023-02-17T02:03:21.592Z,32.72
2023-02-17T02:05:48.927Z,32.15
2023-02-17T02:08:16.703Z,32.47
2023-02-17T02:10:44.110Z,33.35
2023-02-17T02:13:11.521Z,33.17
2023-02-17T02:16:18.429Z,32.88
2023-02-17T02:19:12.192Z,32.83
2023-02-17T02:21:53.930Z,32.65
2023-02-17T02:24:31.479Z,33.40
2023-02-17T02:27:26.982Z,33.08
2023-02-17T02:30:29.144Z,31.00
2023-02-17T02:32:56.560Z,30.15
2023-02-17T02:35:40.239Z,28.02
2023-02-17T02:38:16.941Z,28.55
2023-02-17T02:40:50.221Z,29.10
2023-02-17T02:43:17.980Z,29.00
2023-02-17T02:45:45.449Z,29.58
2023-02-17T02:48:13.001Z,30.17
2023-02-17T02:50:49.517Z,30.15
2023-02-17T02:53:35.086Z,31.75
2023-02-17T02:56:17.774Z,30.52
2023-02-17T02:59:17.607Z,33.08
2023-02-17T03:02:06.177Z,31.65
2023-02-17T03:04:59.506Z,31.27
2023-02-17T03:09:58.292Z,28.73
2023-02-17T03:12:26.615Z,30.63
2023-02-17T03:15:02.746Z,28.35
2023-02-17T03:17:33.589Z,27.50
2023-02-17T03:20:05.120Z,26.85
2023-02-17T03:22:45.749Z,26.83
2023-02-17T03:25:13.408Z,25.98
2023-02-17T03:27:40.760Z,24.17
2023-02-17T03:30:08.818Z,24.13
2023-02-17T03:32:36.556Z,24.42
2023-02-17T03:35:04.222Z,23.67
2023-02-17T03:37:31.597Z,23.88
2023-02-17T03:39:58.954Z,22.45
2023-02-17T03:42:26.370Z,23.63
2023-02-17T03:44:53.755Z,23.17
2023-02-17T03:47:21.074Z,22.92
2023-02-17T03:49:48.461Z,23.35
2023-02-17T03:52:15.830Z,23.00
2023-02-17T03:54:43.311Z,22.08
2023-02-17T03:57:10.825Z,22.17
2023-02-17T03:59:38.253Z,22.65
2023-02-17T04:02:05.872Z,22.40
2023-02-17T04:04:33.239Z,23.83
2023-02-17T04:07:00.594Z,22.80
2023-02-17T04:09:27.878Z,22.85
2023-02-17T04:11:55.581Z,23.80
2023-02-17T04:14:22.925Z,24.60
2023-02-17T04:16:50.888Z,24.15
2023-02-17T04:19:20.927Z,24.83
2023-02-17T04:21:48.572Z,24.70
2023-02-17T04:24:15.905Z,23.35
2023-02-17T04:26:43.397Z,24.70
2023-02-17T04:29:10.805Z,25.63
2023-02-17T04:31:38.353Z,24.10
2023-02-17T04:34:05.809Z,24.88
2023-02-17T04:36:33.216Z,24.98
2023-02-17T04:39:00.557Z,24.67
2023-02-17T04:41:28.011Z,25.73
2023-02-17T04:43:55.683Z,24.95
2023-02-17T04:46:23.341Z,24.67
2023-02-17T04:48:52.084Z,25.27
2023-02-17T04:51:19.501Z,25.13
2023-02-17T04:53:46.937Z,24.83
2023-02-17T04:56:14.293Z,25.23
2023-02-17T04:58:41.679Z,23.10
2023-02-17T05:01:09.132Z,24.05
2023-02-17T05:03:42.945Z,23.92
2023-02-17T05:06:10.326Z,23.10
2023-02-17T05:08:37.744Z,23.23
2023-02-17T05:11:05.287Z,22.75
2023-02-17T05:13:34.232Z,23.60
2023-02-17T05:16:01.686Z,23.42
2023-02-17T05:18:29.113Z,23.50
2023-02-17T05:20:56.617Z,24.02
2023-02-17T05:23:24.148Z,23.55
2023-02-17T05:25:51.500Z,23.27
2023-02-17T05:28:18.919Z,23.23
2023-02-17T05:30:48.102Z,23.38
2023-02-17T05:33:15.574Z,22.83
2023-02-17T05:35:43.179Z,21.20
2023-02-17T05:38:10.751Z,23.02
2023-02-17T05:40:38.098Z,20.30
2023-02-17T05:43:05.443Z,21.80
2023-02-17T05:45:32.812Z,22.67
2023-02-17T05:48:00.702Z,21.55
2023-02-17T05:50:28.072Z,21.02
2023-02-17T05:52:55.422Z,22.73
2023-02-17T05:55:22.893Z,23.23
2023-02-17T05:57:50.468Z,24.17
2023-02-17T06:00:18.211Z,22.45
2023-02-17T06:02:45.598Z,23.30
2023-02-17T06:05:13.133Z,22.35
2023-02-17T06:07:41.218Z,22.85
2023-02-17T06:10:10.305Z,22.88
2023-02-17T06:12:39.551Z,21.73
2023-02-17T06:15:08.917Z,21.60
2023-02-17T06:17:37.696Z,21.52
2023-02-17T06:20:06.193Z,19.55
2023-02-17T06:22:33.805Z,20.27
2023-02-17T06:25:01.239Z,19.45
2023-02-17T06:27:38.859Z,19.75
2023-02-17T06:30:07.769Z,19.70
2023-02-17T06:32:35.613Z,19.38
2023-02-17T06:35:06.154Z,19.52
2023-02-17T06:37:38.308Z,18.27
2023-02-17T06:40:06.776Z,17.88
2023-02-17T06:42:34.417Z,18.75
2023-02-17T06:45:05.507Z,18.38
2023-02-17T06:47:34.346Z,18.67
2023-02-17T06:50:01.961Z,18.42
2023-02-17T06:52:29.338Z,17.95
2023-02-17T06:54:58.038Z,17.27
2023-02-17T06:57:25.747Z,19.20
2023-02-17T06:59:53.379Z,18.35
2023-02-17T07:02:21.263Z,17.88
2023-02-17T07:04:50.717Z,17.90
2023-02-17T07:07:18.193Z,17.88
2023-02-17T07:09:45.695Z,17.77
2023-02-17T07:12:13.120Z,17.48
2023-02-17T07:14:41.878Z,18.20
2023-02-17T07:17:09.484Z,17.92
2023-02-17T07:19:37.065Z,17.83
2023-02-17T07:22:06.937Z,17.80
2023-02-17T07:24:34.302Z,17.75
2023-02-17T07:27:01.987Z,17.08
2023-02-17T07:29:36.207Z,17.02
2023-02-17T07:32:04.387Z,17.00
2023-02-17T07:34:31.844Z,17.15
2023-02-17T07:37:00.635Z,16.80
2023-02-17T07:39:28.549Z,17.15
2023-02-17T07:42:01.344Z,16.25
2023-02-17T07:44:29.033Z,16.77
2023-02-17T07:46:58.414Z,17.23
2023-02-17T07:49:25.860Z,17.20
2023-02-17T07:51:53.528Z,15.75
2023-02-17T07:54:21.180Z,17.20
2023-02-17T07:56:48.588Z,16.48
2023-02-17T07:59:16.828Z,15.48
2023-02-17T08:01:44.331Z,14.95
2023-02-17T08:04:12.267Z,15.10
2023-02-17T08:06:40.233Z,14.60
2023-02-17T08:09:39.831Z,13.45
2023-02-17T08:12:28.362Z,13.35
2023-02-17T08:14:58.282Z,13.73
2023-02-17T08:17:25.734Z,12.55
2023-02-17T08:19:53.292Z,12.68
2023-02-17T08:22:20.685Z,11.80
2023-02-17T08:24:48.711Z,12.13
2023-02-17T08:27:17.133Z,11.93
2023-02-17T08:29:44.879Z,11.90
2023-02-17T08:32:13.550Z,12.07
2023-02-17T08:34:42.161Z,11.73
2023-02-17T08:37:09.968Z,11.55
2023-02-17T08:39:38.045Z,11.77
2023-02-17T08:42:06.122Z,11.98
2023-02-17T08:44:36.033Z,12.40
2023-02-17T08:47:05.163Z,11.77
2023-02-17T08:49:33.079Z,12.50
2023-02-17T08:52:03.935Z,11.57
2023-02-17T08:54:31.476Z,12.45
2023-02-17T08:56:58.895Z,12.80
2023-02-17T08:59:26.448Z,12.57
2023-02-17T09:01:54.163Z,12.10
2023-02-17T09:04:25.375Z,12.60
2023-02-17T09:06:56.791Z,12.35
2023-02-17T09:09:27.197Z,12.95
2023-02-17T09:11:56.514Z,11.52
2023-02-17T09:14:24.214Z,11.23
2023-02-17T09:16:52.795Z,12.07
2023-02-17T09:19:20.751Z,12.43
2023-02-17T09:21:48.576Z,11.52
2023-02-17T09:24:17.252Z,11.75
2023-02-17T09:26:44.756Z,12.07
2023-02-17T09:29:12.201Z,12.23
2023-02-17T09:31:39.963Z,12.98
2023-02-17T09:34:07.514Z,12.27
2023-02-17T09:36:39.360Z,12.68
2023-02-17T09:39:07.542Z,13.35
2023-02-17T09:41:42.791Z,12.00
2023-02-17T09:44:32.161Z,10.60
2023-02-17T09:47:14.826Z,11.23
2023-02-17T09:49:46.249Z,9.80
2023-02-17T09:52:43.904Z,10.45
2023-02-17T09:55:22.240Z,9.80
2023-02-17T09:58:18.451Z,11.20
2023-02-17T10:00:51.786Z,11.07
2023-02-17T10:03:43.688Z,11.93
2023-02-17T10:06:28.432Z,11.73
2023-02-17T10:09:17.245Z,10.88
2023-02-17T10:11:56.676Z,11.30
2023-02-17T10:14:49.280Z,10.65
2023-02-17T10:17:34.790Z,11.10
2023-02-17T10:20:16.283Z,10.95
2023-02-17T10:22:47.010Z,10.68
2023-02-17T10:25:20.388Z,11.40
2023-02-17T10:28:20.284Z,11.80
2023-02-17T10:31:01.287Z,12.02
2023-02-17T10:33:52.560Z,12.55
2023-02-17T10:36:45.406Z,12.77
2023-02-17T10:39:23.329Z,13.15
2023-02-17T10:41:52.345Z,12.50
2023-02-17T10:44:25.603Z,12.93
2023-02-17T10:46:54.642Z,14.00
2023-02-17T10:49:24.336Z,13.95
2023-02-17T10:51:52.063Z,13.90
2023-02-17T10:54:41.630Z,13.65
2023-02-17T10:57:12.246Z,14.38
2023-02-17T10:59:44.974Z,14.02
2023-02-17T11:02:31.210Z,13.63
2023-02-17T11:04:59.984Z,13.95
2023-02-17T11:07:35.052Z,13.73
2023-02-17T11:10:07.328Z,14.02
2023-02-17T11:12:44.913Z,14.43
2023-02-17T11:15:23.435Z,13.88
2023-02-17T11:17:51.673Z,14.70
2023-02-17T11:20:22.916Z,14.73
2023-02-17T11:23:16.987Z,14.30
2023-02-17T11:25:54.909Z,13.77
2023-02-17T11:28:26.496Z,13.73
2023-02-17T11:30:57.560Z,13.13
2023-02-17T11:33:34.182Z,12.18
2023-02-17T11:36:02.825Z,12.30
2023-02-17T11:38:42.311Z,12.23
2023-02-17T11:41:11.378Z,11.65
2023-02-17T11:43:39.970Z,11.98
2023-02-17T11:46:25.856Z,10.88
2023-02-17T11:49:20.261Z,11.38
2023-02-17T11:51:56.355Z,10.90
2023-02-17T11:54:58.819Z,10.55
2023-02-17T11:57:32.838Z,10.20
2023-02-17T12:00:15.384Z,8.95
2023-02-17T12:03:20.258Z,7.85
2023-02-17T12:05:54.908Z,7.60
2023-02-17T12:08:47.712Z,7.80
2023-02-17T12:11:27.908Z,7.38
2023-02-17T12:14:13.204Z,7.43
2023-02-17T12:16:43.578Z,6.90
2023-02-17T12:19:29.253Z,6.85
2023-02-17T12:22:40.827Z,6.78
2023-02-17T12:25:28.991Z,5.63
2023-02-17T12:27:56.475Z,6.07
2023-02-17T12:30:47.297Z,6.05
2023-02-17T12:33:46.104Z,4.90
2023-02-17T12:36:16.393Z,5.80
2023-02-17T12:38:57.126Z,5.88
2023-02-17T12:41:36.996Z,5.60
2023-02-17T12:44:10.290Z,5.38
2023-02-17T12:46:44.441Z,5.63
2023-02-17T12:49:27.043Z,5.05
2023-02-17T12:52:06.098Z,5.75
2023-02-17T12:54:43.604Z,5.97
2023-02-17T12:57:11.223Z,5.22
2023-02-17T12:59:41.504Z,5.50
2023-02-17T13:02:20.840Z,5.53
2023-02-17T13:04:58.030Z,6.40
2023-02-17T13:07:43.691Z,5.60
2023-02-17T13:10:39.607Z,6.10
2023-02-17T13:13:14.264Z,5.60
2023-02-17T13:15:44.176Z,5.43
2023-02-17T13:18:28.432Z,6.22
2023-02-17T13:21:16.444Z,5.53
2023-02-17T13:23:45.843Z,5.82
2023-02-17T13:26:21.275Z,5.85
2023-02-17T13:28:53.750Z,5.78
2023-02-17T13:31:26.848Z,5.20
2023-02-17T13:33:59.187Z,4.88
2023-02-17T13:36:29.423Z,6.43
2023-02-17T13:39:05.132Z,5.43
2023-02-17T13:41:46.401Z,5.43
2023-02-17T13:44:33.700Z,5.18
2023-02-17T13:47:17.489Z,5.53
2023-02-17T13:49:53.466Z,5.30
2023-02-17T13:52:26.071Z,5.63
2023-02-17T13:55:00.505Z,5.57
2023-02-17T13:57:36.260Z,5.00
2023-02-17T14:00:21.470Z,6.05
2023-02-17T14:02:58.994Z,5.25
2023-02-17T14:05:40.533Z,4.93
2023-02-17T14:08:27.984Z,5.40
2023-02-17T14:10:56.091Z,5.05
2023-02-17T14:13:23.992Z,4.72
2023-02-17T14:16:00.984Z,5.43
2023-02-17T14:18:32.401Z,5.28
2023-02-17T14:21:09.343Z,5.78
2023-02-17T14:23:52.874Z,5.10
2023-02-17T14:26:47.651Z,5.75
2023-02-17T14:29:19.590Z,5.10
2023-02-17T14:31:50.455Z,5.10
2023-02-17T14:34:30.503Z,5.53
2023-02-17T14:37:17.589Z,5.90
2023-02-17T14:39:45.038Z,5.70
2023-02-17T14:42:12.647Z,5.20
2023-02-17T14:44:40.744Z,5.47
2023-02-17T14:47:08.339Z,5.25
2023-02-17T14:49:35.717Z,5.57
2023-02-17T14:52:19.052Z,6.15
2023-02-17T14:54:46.508Z,6.03
2023-02-17T14:57:15.461Z,5.25
2023-02-17T14:59:43.503Z,6.32
2023-02-17T15:02:18.311Z,5.45
2023-02-17T15:04:45.845Z,6.00
2023-02-17T15:07:17.890Z,6.13
2023-02-17T15:09:46.912Z,6.30
2023-02-17T15:12:21.849Z,5.78
2023-02-17T15:14:49.469Z,6.30
2023-02-17T15:17:17.322Z,6.38
2023-02-17T15:19:47.745Z,6.43
2023-02-17T15:22:18.416Z,6.28
2023-02-17T15:24:48.360Z,6.03
2023-02-17T15:27:17.005Z,5.95
2023-02-17T15:29:44.566Z,6.32
2023-02-17T15:32:19.247Z,5.50
2023-02-17T15:34:47.020Z,6.43
2023-02-17T15:37:14.547Z,6.32
2023-02-17T15:39:43.408Z,6.60
2023-02-17T15:42:13.745Z,6.13
2023-02-17T15:44:49.726Z,5.90
2023-02-17T15:47:19.265Z,6.82
2023-02-17T15:49:47.438Z,6.43
2023-02-17T15:52:15.431Z,5.82
2023-02-17T15:54:43.782Z,6.95
2023-02-17T15:57:25.887Z,5.85
2023-02-17T15:59:57.753Z,5.68
2023-02-17T16:02:26.311Z,5.67
2023-02-17T16:04:53.715Z,5.80
2023-02-17T16:07:21.094Z,6.45
2023-02-17T16:09:48.505Z,5.88
2023-02-17T16:12:26.324Z,6.40
2023-02-17T16:14:53.812Z,6.53
2023-02-17T16:17:22.916Z,7.28
2023-02-17T16:19:51.766Z,6.75
2023-02-17T16:22:19.280Z,6.60
2023-02-17T16:24:47.172Z,7.20
2023-02-17T16:27:16.717Z,6.22
2023-02-17T16:29:44.118Z,6.50
2023-02-17T16:32:12.738Z,6.38
2023-02-17T16:34:43.200Z,6.07
2023-02-17T16:37:16.379Z,6.00
2023-02-17T16:39:44.268Z,6.20
2023-02-17T16:42:12.448Z,6.85
2023-02-17T16:44:39.792Z,5.88
2023-02-17T16:47:07.349Z,4.90
2023-02-17T16:49:37.740Z,6.45
2023-02-17T16:52:25.070Z,6.47
2023-02-17T16:54:52.734Z,6.43
2023-02-17T16:57:20.801Z,5.68
2023-02-17T16:59:52.456Z,6.00
2023-02-17T17:02:21.631Z,6.65
2023-02-17T17:04:49.374Z,6.38
2023-02-17T17:07:16.947Z,5.93
2023-02-17T17:10:06.925Z,6.68
2023-02-17T17:12:35.225Z,5.78
2023-02-17T17:15:02.757Z,6.18
2023-02-17T17:17:31.450Z,5.95
2023-02-17T17:19:58.872Z,6.07
2023-02-17T17:22:26.283Z,5.70
2023-02-17T17:24:56.936Z,6.35
2023-02-17T17:27:24.542Z,6.00
2023-02-17T17:29:51.876Z,6.65
2023-02-17T17:32:19.744Z,6.10
2023-02-17T17:34:47.320Z,6.57
2023-02-17T17:37:15.231Z,6.25
2023-02-17T17:39:49.845Z,7.57
2023-02-17T17:42:17.439Z,7.80
2023-02-17T17:44:44.897Z,7.65
2023-02-17T17:47:21.289Z,6.75
2023-02-17T17:49:58.229Z,6.88
2023-02-17T17:52:26.256Z,6.88
2023-02-17T17:54:56.277Z,6.85
2023-02-17T17:57:23.836Z,7.20
2023-02-17T17:59:51.412Z,6.18
2023-02-17T18:02:18.757Z,6.47
2023-02-17T18:04:46.948Z,6.47
2023-02-17T18:07:14.766Z,6.82
2023-02-17T18:09:42.082Z,6.75
2023-02-17T18:12:13.625Z,6.70
2023-02-17T18:14:43.301Z,7.30
2023-02-17T18:17:12.186Z,6.95
2023-02-17T18:19:40.127Z,6.70
2023-02-17T18:22:07.754Z,6.70
2023-02-17T18:24:57.824Z,6.13
2023-02-17T18:27:25.416Z,7.32
2023-02-17T18:29:59.812Z,7.18
2023-02-17T18:32:27.322Z,7.82
2023-02-17T18:34:57.146Z,7.32
2023-02-17T18:37:24.852Z,6.90
2023-02-17T18:39:52.417Z,7.90
2023-02-17T18:42:20.041Z,7.57
2023-02-17T18:44:51.049Z,7.22
2023-02-17T18:47:18.412Z,7.57
2023-02-17T18:49:46.136Z,8.00
2023-02-17T18:52:13.640Z,7.55
2023-02-17T18:54:45.430Z,7.15
2023-02-17T18:57:13.165Z,7.30
2023-02-17T18:59:40.661Z,7.32
2023-02-17T19:02:09.683Z,7.85
2023-02-17T19:04:37.583Z,8.02
2023-02-17T19:07:07.017Z,7.88
2023-02-17T19:09:35.927Z,8.68
2023-02-17T19:12:03.625Z,8.18
2023-02-17T19:14:34.318Z,7.78
2023-02-17T19:17:01.945Z,8.20
2023-02-17T19:19:31.523Z,9.40
2023-02-17T19:21:59.318Z,7.78
2023-02-17T19:24:26.943Z,9.30
2023-02-17T19:26:54.633Z,9.10
2023-02-17T19:29:22.907Z,9.23
2023-02-17T19:31:50.451Z,9.23
2023-02-17T19:34:19.973Z,10.20
2023-02-17T19:36:47.673Z,10.02
2023-02-17T19:39:15.103Z,10.90
2023-02-17T19:41:42.652Z,9.70
2023-02-17T19:44:11.269Z,9.27
2023-02-17T19:46:39.508Z,9.77
2023-02-17T19:49:07.522Z,9.90
2023-02-17T19:51:35.570Z,10.82
2023-02-17T19:54:04.428Z,10.35
2023-02-17T19:56:33.391Z,10.60
2023-02-17T19:59:00.972Z,10.75
2023-02-17T20:01:31.078Z,10.18
2023-02-17T20:04:02.358Z,10.95
2023-02-17T20:06:35.079Z,10.80
2023-02-17T20:09:06.088Z,10.95
2023-02-17T20:11:34.022Z,11.05
2023-02-17T20:14:02.284Z,10.93
2023-02-17T20:16:32.685Z,11.40
2023-02-17T20:19:04.272Z,11.00
2023-02-17T20:21:34.910Z,11.25
2023-02-17T20:24:02.817Z,13.13
2023-02-17T20:26:33.132Z,13.60
2023-02-17T20:29:01.711Z,13.98
2023-02-17T20:31:29.432Z,13.90
2023-02-17T20:33:57.130Z,14.10
2023-02-17T20:36:25.258Z,13.70
2023-02-17T20:38:53.002Z,15.27
2023-02-17T20:41:21.747Z,15.20
2023-02-17T20:43:49.851Z,15.75
2023-02-17T20:46:26.098Z,16.08
2023-02-17T20:48:54.518Z,16.63
2023-02-17T20:51:22.126Z,17.48
2023-02-17T20:53:49.742Z,17.13
2023-02-17T20:56:19.576Z,20.30
2023-02-17T20:58:47.706Z,19.30
2023-02-17T21:01:15.664Z,19.90
2023-02-17T21:03:43.290Z,21.02
2023-02-17T21:06:31.920Z,20.73
2023-02-17T21:09:05.236Z,20.00
2023-02-17T21:11:33.707Z,22.25
2023-02-17T21:14:01.188Z,21.13
2023-02-17T21:16:48.647Z,22.15
2023-02-17T21:19:19.611Z,22.05
2023-02-17T21:21:48.957Z,22.38
2023-02-17T21:24:19.212Z,22.13
2023-02-17T21:26:53.073Z,21.75
2023-02-17T21:29:20.535Z,23.15
2023-02-17T21:31:47.946Z,24.25
2023-02-17T21:34:16.866Z,22.92
2023-02-17T21:36:44.364Z,23.67
2023-02-17T21:39:11.821Z,23.55
2023-02-17T21:41:41.796Z,25.17
2023-02-17T21:44:30.706Z,25.20
2023-02-17T21:46:58.176Z,24.00
2023-02-17T21:49:25.881Z,25.85
2023-02-17T21:51:53.288Z,26.52
2023-02-17T21:54:20.724Z,26.90
2023-02-17T21:56:48.214Z,27.70
2023-02-17T21:59:15.550Z,27.63
2023-02-17T22:01:43.047Z,26.27
2023-02-17T22:04:11.107Z,29.38
2023-02-17T22:06:40.824Z,29.98
2023-02-17T22:09:14.717Z,28.73
2023-02-17T22:11:43.188Z,29.80
2023-02-17T22:14:17.377Z,30.00
2023-02-17T22:16:45.387Z,30.00
2023-02-17T22:19:21.335Z,32.45
2023-02-17T22:21:49.193Z,31.92
2023-02-17T22:24:17.031Z,31.90
2023-02-17T22:26:44.565Z,33.95
2023-02-17T22:29:12.088Z,37.00
2023-02-17T22:31:39.740Z,35.78
2023-02-17T22:34:10.107Z,35.40
2023-02-17T22:36:38.096Z,37.35
2023-02-17T22:39:07.916Z,37.80
2023-02-17T22:41:35.878Z,38.95
2023-02-17T22:44:03.999Z,39.38
2023-02-17T22:46:31.651Z,38.85
2023-02-17T22:48:59.536Z,37.63
2023-02-17T22:51:32.475Z,37.22
2023-02-17T22:56:27.757Z,37.70
2023-02-17T22:58:58.058Z,37.55
2023-02-17T23:01:28.218Z,37.72
2023-02-17T23:03:55.626Z,37.83
2023-02-17T23:06:24.968Z,34.83
2023-02-17T23:08:53.026Z,34.15
2023-02-17T23:11:43.356Z,33.25
2023-02-17T23:14:11.846Z,32.03
2023-02-17T23:16:39.630Z,32.78
2023-02-17T23:19:10.543Z,34.20
2023-02-17T23:21:38.682Z,33.55
2023-02-17T23:24:06.522Z,32.92
2023-02-17T23:26:33.994Z,35.70
2023-02-17T23:29:01.320Z,35.58
2023-02-17T23:31:28.787Z,32.60
2023-02-17T23:33:56.347Z,33.72
2023-02-17T23:36:23.697Z,36.72
2023-02-17T23:38:51.001Z,33.80
2023-02-17T23:41:18.382Z,34.83
2023-02-17T23:43:45.768Z,32.03
2023-02-17T23:46:13.258Z,31.30
2023-02-17T23:48:40.756Z,30.95
2023-02-17T23:51:08.329Z,33.05
2023-02-17T23:53:35.744Z,31.65
2023-02-17T23:56:07.758Z,29.55
2023-02-17T23:58:35.896Z,29.15
